Time;durP1;ratioP1;P1;durP2;ratioP2;P2;SDS_P1;SDS_P2;PMS_P1;PMS_P2;Temp;Humidity;BMP_temperature;BMP_pressure;BME280_temperature;BME280_humidity;BME280_pressure;Samples;Min_cycle;Max_cycle;Signal;HPM_P1;HPM_P2
2023/06/02 00:02:02;;;;;;;8.90;5.20;;;;;;;18.82;47.22;99258.28;105095;1273;61021;-78
2023/06/02 00:04:30;;;;;;;6.70;4.30;;;;;;;18.76;47.20;99259.26;105099;1268;59327;-78
2023/06/02 00:07:03;;;;;;;8.60;4.00;;;;;;;18.73;47.26;99260.98;105083;1267;72366;-77
2023/06/02 00:09:31;;;;;;;10.40;4.40;;;;;;;18.70;47.34;99258.83;105208;1270;70124;-78
2023/06/02 00:11:59;;;;;;;6.40;4.00;;;;;;;18.68;47.38;99258.90;105187;1267;72647;-78
2023/06/02 00:14:26;;;;;;;7.70;4.30;;;;;;;18.67;47.51;99258.28;105567;1262;200769;-80
2023/06/02 00:17:00;;;;;;;8.20;4.20;;;;;;;18.68;47.44;99254.96;106795;1268;59078;-79
2023/06/02 00:19:31;;;;;;;7.50;3.80;;;;;;;18.69;47.33;99254.03;107129;1263;71015;-84
2023/06/02 00:22:09;;;;;;;7.00;4.10;;;;;;;18.69;47.20;99255.86;105336;1266;71426;-79
2023/06/02 00:24:37;;;;;;;9.00;4.20;;;;;;;18.68;47.13;99259.29;105789;1254;71277;-78
2023/06/02 00:27:04;;;;;;;6.00;4.10;;;;;;;18.65;47.26;99256.37;106162;1263;60242;-82
2023/06/02 00:29:32;;;;;;;7.40;4.10;;;;;;;18.65;47.25;99254.96;106873;1254;59527;-82
2023/06/02 00:32:23;;;;;;;8.70;4.30;;;;;;;18.63;47.10;99251.52;107646;1251;72972;31
2023/06/02 00:34:51;;;;;;;7.20;3.80;;;;;;;18.57;47.27;99251.22;107167;1261;69103;-82
2023/06/02 00:37:18;;;;;;;5.60;4.00;;;;;;;18.53;47.29;99247.45;107010;1262;71431;-82
2023/06/02 00:39:46;;;;;;;7.20;4.00;;;;;;;18.50;47.27;99246.02;108439;1262;60133;-82
2023/06/02 00:42:13;;;;;;;8.00;4.40;;;;;;;18.49;47.28;99249.24;108352;1262;58779;-84
2023/06/02 00:44:41;;;;;;;6.50;4.10;;;;;;;18.47;47.32;99245.13;108248;1261;72754;-82
2023/06/02 00:47:09;;;;;;;9.00;4.00;;;;;;;18.47;47.26;99243.65;108768;1262;68999;-81
2023/06/02 00:49:38;;;;;;;7.20;4.20;;;;;;;18.44;47.31;99242.29;108618;1259;71076;-81
2023/06/02 00:52:06;;;;;;;5.70;4.00;;;;;;;18.41;47.30;99243.91;106786;1259;59561;-83
2023/06/02 00:54:35;;;;;;;8.60;3.70;;;;;;;18.39;47.30;99243.86;108867;1259;58788;-84
2023/06/02 00:57:02;;;;;;;10.50;4.00;;;;;;;18.41;47.38;99245.19;107346;1259;73594;-80
2023/06/02 00:59:30;;;;;;;11.60;3.90;;;;;;;18.43;47.27;99246.52;105925;1260;68842;-81
2023/06/02 01:01:57;;;;;;;9.30;4.10;;;;;;;18.43;47.12;99248.04;108436;1259;71658;-80
2023/06/02 01:04:25;;;;;;;12.20;4.30;;;;;;;18.42;47.11;99248.06;107031;1260;59763;-81
2023/06/02 01:06:52;;;;;;;8.00;4.20;;;;;;;18.41;47.15;99247.29;106701;1259;59667;-82
2023/06/02 01:09:20;;;;;;;10.80;4.20;;;;;;;18.39;47.24;99246.05;105773;1262;71808;-82
2023/06/02 01:11:47;;;;;;;9.00;3.90;;;;;;;18.39;47.28;99244.27;105533;1259;70532;-80
2023/06/02 01:14:15;;;;;;;9.30;3.80;;;;;;;18.38;47.19;99244.95;105613;1260;74700;-81
2023/06/02 01:16:44;;;;;;;8.10;4.10;;;;;;;18.36;47.20;99243.90;105399;1261;59665;-81
2023/06/02 01:19:14;;;;;;;6.30;3.80;;;;;;;18.33;47.30;99246.60;105680;1262;61867;-81
2023/06/02 01:21:44;;;;;;;5.40;3.50;;;;;;;18.30;47.33;99247.05;105619;1260;75526;-83
2023/06/02 01:24:14;;;;;;;8.40;4.40;;;;;;;18.28;47.41;99246.64;105710;1259;70142;-82
2023/06/02 01:26:42;;;;;;;10.30;4.40;;;;;;;18.27;47.36;99246.94;105691;1259;72725;-83
2023/06/02 01:29:09;;;;;;;10.30;4.00;;;;;;;18.26;47.33;99241.90;105933;1259;60023;-83
2023/06/02 01:31:43;;;;;;;10.50;3.90;;;;;;;18.25;47.37;99245.52;108273;1259;58796;-82
2023/06/02 01:34:19;;;;;;;10.10;4.70;;;;;;;18.23;47.30;99239.73;108139;1259;71774;-81
2023/06/02 01:36:49;;;;;;;6.30;3.50;;;;;;;18.19;47.40;99237.91;107980;1259;68784;-79
2023/06/02 01:39:16;;;;;;;8.10;3.70;;;;;;;18.16;47.59;99238.96;108008;1259;71395;-86
2023/06/02 01:41:44;;;;;;;11.00;3.80;;;;;;;18.14;47.67;99239.27;107154;1259;59595;-83
2023/06/02 01:44:12;;;;;;;8.80;3.90;;;;;;;18.11;47.68;99241.85;108838;1259;59734;-83
2023/06/02 01:46:40;;;;;;;9.30;3.70;;;;;;;18.08;47.68;99239.23;108732;1259;71507;-85
2023/06/02 01:49:16;;;;;;;7.80;3.70;;;;;;;18.06;47.73;99239.15;108608;1259;69077;-81
2023/06/02 01:51:44;;;;;;;8.70;4.00;;;;;;;18.03;47.72;99241.41;108330;1258;71727;-81
2023/06/02 01:54:12;;;;;;;5.70;3.60;;;;;;;17.96;47.90;99241.89;109046;1258;58915;-84
2023/06/02 01:56:39;;;;;;;7.00;4.50;;;;;;;17.89;48.07;99240.52;108435;1259;59742;-83
2023/06/02 01:59:07;;;;;;;9.00;3.60;;;;;;;17.83;48.15;99242.13;107537;1265;72180;-81
2023/06/02 02:01:36;;;;;;;9.40;4.50;;;;;;;17.78;48.25;99243.89;108640;1259;68804;-83
2023/06/02 02:04:04;;;;;;;6.60;3.70;;;;;;;17.73;48.30;99241.56;109003;1259;71457;-84
2023/06/02 02:06:32;;;;;;;7.20;3.70;;;;;;;17.68;48.35;99236.77;107827;1259;59774;-82
2023/06/02 02:08:59;;;;;;;9.40;4.20;;;;;;;17.64;48.27;99238.48;105962;1259;60202;-80
2023/06/02 02:11:27;;;;;;;6.90;4.10;;;;;;;17.63;48.12;99239.45;106157;1267;73037;-80
2023/06/02 02:13:56;;;;;;;3.70;3.00;;;;;;;17.61;48.22;99234.85;108054;1259;69066;-81
2023/06/02 02:16:24;;;;;;;4.40;3.50;;;;;;;17.60;48.08;99233.97;106245;1264;73355;-81
2023/06/02 02:18:52;;;;;;;12.20;3.80;;;;;;;17.59;48.07;99233.92;106215;1263;59592;-83
2023/06/02 02:21:20;;;;;;;5.10;3.40;;;;;;;17.57;48.05;99228.77;105559;1269;59749;-78
2023/06/02 02:23:48;;;;;;;8.60;3.50;;;;;;;17.57;48.04;99233.49;106183;1262;73075;-82
2023/06/02 02:26:16;;;;;;;6.50;3.50;;;;;;;17.57;48.12;99233.75;105987;1265;69042;-80
2023/06/02 02:28:45;;;;;;;8.00;3.70;;;;;;;17.57;48.16;99228.70;105755;1259;72991;-82
2023/06/02 02:31:12;;;;;;;7.10;3.80;;;;;;;17.57;48.31;99233.45;107324;1257;59530;-82
2023/06/02 02:33:40;;;;;;;8.50;3.70;;;;;;;17.57;48.41;99234.16;108132;1259;59642;-81
2023/06/02 02:36:08;;;;;;;5.80;3.50;;;;;;;17.58;48.50;99231.33;107963;1259;71599;-82
2023/06/02 02:38:36;;;;;;;6.50;3.40;;;;;;;17.59;48.50;99234.38;105763;1265;69344;-80
2023/06/02 02:41:04;;;;;;;6.00;3.90;;;;;;;17.60;48.43;99233.27;105756;1260;71731;-80
2023/06/02 02:43:32;;;;;;;7.10;3.70;;;;;;;17.59;48.50;99230.17;106725;1259;59712;-81
2023/06/02 02:45:59;;;;;;;10.70;3.80;;;;;;;17.59;48.49;99232.97;106677;1259;60901;-81
2023/06/02 02:48:27;;;;;;;9.10;3.90;;;;;;;17.59;48.70;99229.26;106505;1263;73204;-81
2023/06/02 02:50:55;;;;;;;7.60;3.10;;;;;;;17.59;48.62;99232.31;106367;1259;70159;-83
2023/06/02 02:53:23;;;;;;;8.50;3.80;;;;;;;17.60;48.59;99229.71;106491;1258;72716;-79
2023/06/02 02:55:51;;;;;;;5.30;4.00;;;;;;;17.60;48.62;99232.47;107437;1259;59775;-81
2023/06/02 02:58:19;;;;;;;8.60;3.70;;;;;;;17.62;48.68;99230.80;108401;1257;61495;-83
2023/06/02 03:00:47;;;;;;;8.10;3.90;;;;;;;17.64;48.58;99229.40;108103;1257;72000;-80
2023/06/02 03:03:16;;;;;;;11.10;3.70;;;;;;;17.66;48.53;99226.68;108776;1259;71519;-80
2023/06/02 03:05:45;;;;;;;12.60;4.60;;;;;;;17.70;48.52;99226.96;107677;1260;71235;-81
2023/06/02 03:08:15;;;;;;;9.00;4.10;;;;;;;17.73;48.45;99228.46;105911;1265;59627;-79
2023/06/02 03:10:44;;;;;;;6.00;3.70;;;;;;;17.76;48.53;99229.95;105617;1266;60080;-80
2023/06/02 03:13:12;;;;;;;10.70;3.70;;;;;;;17.78;48.50;99227.09;105738;1259;72102;-80
2023/06/02 03:15:42;;;;;;;8.10;4.30;;;;;;;17.79;48.54;99226.38;106324;1259;69043;-84
2023/06/02 03:18:12;;;;;;;11.50;4.10;;;;;;;17.82;48.56;99229.12;106359;1259;71447;-81
2023/06/02 03:20:41;;;;;;;8.90;4.10;;;;;;;17.84;48.58;99229.57;106178;1260;59574;-82
2023/06/02 03:23:09;;;;;;;8.20;3.80;;;;;;;17.85;48.59;99227.21;106663;1259;59664;-83
2023/06/02 03:25:40;;;;;;;5.00;3.00;;;;;;;17.86;48.67;99224.13;108693;1258;71962;-82
2023/06/02 03:28:08;;;;;;;7.70;3.90;;;;;;;17.90;48.64;99221.63;106545;1262;68892;-80
2023/06/02 03:30:35;;;;;;;5.90;3.60;;;;;;;17.94;48.76;99216.36;107019;1259;72763;-81
2023/06/02 03:33:03;;;;;;;7.00;4.40;;;;;;;17.98;48.81;99214.54;108989;1258;57880;-81
2023/06/02 03:35:30;;;;;;;9.20;3.90;;;;;;;18.03;48.74;99213.30;107794;1263;58954;-82
2023/06/02 03:37:58;;;;;;;6.10;3.80;;;;;;;18.08;48.77;99214.58;106596;1259;71841;-80
2023/06/02 03:40:26;;;;;;;9.30;4.00;;;;;;;18.14;48.62;99217.14;106481;1260;68637;-81
2023/06/02 03:42:55;;;;;;;8.30;3.80;;;;;;;18.19;48.54;99218.89;106313;1260;71484;-82
2023/06/02 03:45:22;;;;;;;7.80;4.80;;;;;;;18.24;48.47;99221.59;105813;1261;59733;-81
2023/06/02 03:47:50;;;;;;;7.30;4.00;;;;;;;18.28;48.32;99219.86;105641;1261;59626;-79
2023/06/02 03:50:18;;;;;;;6.70;3.20;;;;;;;18.33;48.19;99215.50;105869;1257;73160;-84
2023/06/02 03:52:46;;;;;;;6.70;3.60;;;;;;;18.36;48.15;99214.73;105934;1257;70670;-80
2023/06/02 03:55:13;;;;;;;5.50;3.30;;;;;;;18.41;48.17;99216.90;105569;1260;71578;-79
2023/06/02 03:57:42;;;;;;;7.00;3.50;;;;;;;18.46;48.02;99221.27;105723;1259;60195;-78
2023/06/02 04:00:10;;;;;;;8.50;3.90;;;;;;;18.52;48.08;99217.63;106107;1265;59787;-81
2023/06/02 04:02:41;;;;;;;9.80;3.90;;;;;;;18.57;47.94;99215.23;108929;1259;73088;-80
2023/06/02 04:05:16;;;;;;;5.30;3.40;;;;;;;18.64;48.02;99214.09;108469;1259;68733;-81
2023/06/02 04:07:46;;;;;;;8.10;3.90;;;;;;;18.72;47.99;99208.35;106662;1259;71454;-82
2023/06/02 04:10:14;;;;;;;8.10;3.50;;;;;;;18.79;47.82;99211.21;106662;1259;60312;-83
2023/06/02 04:12:41;;;;;;;11.30;3.70;;;;;;;18.86;47.76;99209.35;106862;1263;61049;-83
2023/06/02 04:15:09;;;;;;;10.10;3.80;;;;;;;18.94;47.62;99207.58;106033;1262;72640;-82
2023/06/02 04:17:37;;;;;;;13.60;4.10;;;;;;;19.00;47.52;99206.69;106585;1259;69453;-79
2023/06/02 04:20:06;;;;;;;8.50;3.90;;;;;;;19.06;47.45;99207.70;107737;1264;71419;-79
2023/06/02 04:22:35;;;;;;;6.60;3.40;;;;;;;19.14;47.23;99200.46;106627;1259;60557;-81
2023/06/02 04:25:03;;;;;;;9.90;4.00;;;;;;;19.22;47.30;99203.11;105899;1263;60551;-82
2023/06/02 04:27:30;;;;;;;8.50;4.10;;;;;;;19.33;47.33;99197.90;105676;1259;74202;-84
2023/06/02 04:29:58;;;;;;;8.70;4.00;;;;;;;19.45;46.97;99196.31;106130;1263;70426;-81
2023/06/02 04:32:26;;;;;;;6.70;3.70;;;;;;;19.60;46.84;99192.92;108374;1259;71490;-81
2023/06/02 04:34:54;;;;;;;8.70;4.30;;;;;;;19.76;46.62;99188.29;108317;1263;59224;-80
2023/06/02 04:37:22;;;;;;;5.90;3.30;;;;;;;19.92;46.37;99186.48;108391;1259;60341;-82
2023/06/02 04:39:52;;;;;;;7.90;3.60;;;;;;;20.05;46.00;99181.91;108225;1257;74737;-85
2023/06/02 04:42:22;;;;;;;8.00;3.40;;;;;;;20.19;46.03;99178.58;108286;1259;70150;-82
2023/06/02 04:44:51;;;;;;;5.60;4.00;;;;;;;20.35;45.82;99186.33;107892;1263;72089;-80
2023/06/02 04:47:19;;;;;;;7.50;3.90;;;;;;;20.49;45.76;99185.73;107198;1260;59803;-80
2023/06/02 04:49:47;;;;;;;9.40;4.10;;;;;;;20.62;45.23;99183.09;107850;1259;60316;-80
2023/06/02 04:52:14;;;;;;;6.20;3.60;;;;;;;20.70;45.31;99180.36;107204;1257;72713;-84
2023/06/02 04:54:43;;;;;;;8.00;4.20;;;;;;;20.78;45.15;99181.65;106800;1259;68996;-82
2023/06/02 04:57:11;;;;;;;9.70;4.50;;;;;;;20.85;45.14;99181.96;106362;1263;73000;-82
2023/06/02 04:59:39;;;;;;;9.60;4.60;;;;;;;20.95;44.89;99179.82;105706;1271;60485;-79
2023/06/02 05:02:06;;;;;;;10.90;4.30;;;;;;;21.04;44.78;99181.02;107299;1259;60504;-82
2023/06/02 05:04:34;;;;;;;6.60;4.00;;;;;;;21.12;44.68;99180.42;107943;1260;74831;-80
2023/06/02 05:07:04;;;;;;;10.00;3.80;;;;;;;21.20;44.70;99179.16;107898;1263;69048;-82
2023/06/02 05:09:32;;;;;;;9.50;4.40;;;;;;;21.28;44.52;99182.30;108105;1259;70239;-85
2023/06/02 05:11:59;;;;;;;7.90;4.20;;;;;;;21.33;44.41;99179.00;107099;1260;60568;-82
2023/06/02 05:14:27;;;;;;;10.00;4.80;;;;;;;21.38;44.49;99174.85;105956;1258;60587;-81
2023/06/02 05:16:55;;;;;;;9.30;4.50;;;;;;;21.45;44.59;99176.17;105962;1263;72763;-83
2023/06/02 05:19:23;;;;;;;7.70;4.20;;;;;;;21.53;44.45;99177.09;106065;1264;70502;-82
2023/06/02 05:21:50;;;;;;;9.80;4.80;;;;;;;21.63;44.40;99173.90;105830;1262;71435;-83
2023/06/02 05:24:18;;;;;;;8.60;4.10;;;;;;;21.71;44.06;99176.69;106167;1266;60379;-83
2023/06/02 05:26:45;;;;;;;8.30;4.00;;;;;;;21.76;43.78;99172.58;106339;1263;60492;-83
2023/06/02 05:29:13;;;;;;;9.60;4.40;;;;;;;21.82;43.91;99174.14;107067;1259;72398;-81
2023/06/02 05:31:41;;;;;;;6.90;4.30;;;;;;;21.88;43.91;99175.83;107805;1257;68491;-80
2023/06/02 05:34:10;;;;;;;5.40;3.80;;;;;;;21.95;43.73;99175.45;108190;1260;71429;-83
2023/06/02 05:36:37;;;;;;;7.30;4.30;;;;;;;21.99;43.48;99172.19;106545;1260;60453;-82
2023/06/02 05:39:05;;;;;;;6.70;4.90;;;;;;;22.01;43.63;99170.86;105970;1263;59749;-82
2023/06/02 05:41:33;;;;;;;15.20;5.20;;;;;;;22.05;43.67;99173.00;105496;1259;73883;-80
2023/06/02 05:44:02;;;;;;;10.00;4.80;;;;;;;22.12;43.74;99170.40;105723;1262;70089;-81
2023/06/02 05:46:29;;;;;;;9.60;4.90;;;;;;;22.20;43.80;99171.02;105818;1263;71475;-80
2023/06/02 05:48:57;;;;;;;7.70;3.90;;;;;;;22.27;43.71;99169.33;105611;1262;60551;-80
2023/06/02 05:51:25;;;;;;;7.30;4.60;;;;;;;22.34;43.54;99169.37;105565;1257;62161;-80
2023/06/02 05:53:53;;;;;;;8.50;5.00;;;;;;;22.43;43.52;99170.52;105495;1265;71810;-80
2023/06/02 05:56:21;;;;;;;15.60;4.70;;;;;;;22.48;43.26;99165.51;105598;1261;69214;-79
2023/06/02 05:58:49;;;;;;;16.10;5.70;;;;;;;22.55;43.18;99162.80;106509;1260;72724;-79
2023/06/02 06:01:17;;;;;;;9.90;3.70;;;;;;;22.62;43.09;99164.69;106352;1261;59292;-77
2023/06/02 06:03:44;;;;;;;7.10;3.80;;;;;;;22.67;42.65;99164.33;107381;1260;59596;-75
2023/06/02 06:06:12;;;;;;;8.80;4.40;;;;;;;22.71;42.73;99162.41;106605;1263;74875;-76
2023/06/02 06:08:40;;;;;;;8.20;4.00;;;;;;;22.77;42.60;99166.61;106057;1263;70348;-80
2023/06/02 06:11:07;;;;;;;5.20;3.30;;;;;;;22.82;42.40;99172.21;105805;1264;72832;-76
2023/06/02 06:13:35;;;;;;;12.50;4.00;;;;;;;22.83;42.25;99164.21;105992;1263;60659;-74
2023/06/02 06:16:04;;;;;;;5.70;3.90;;;;;;;22.87;42.42;99168.77;106120;1261;60588;-77
2023/06/02 06:18:34;;;;;;;9.60;4.50;;;;;;;22.93;42.54;99166.97;105706;1258;72848;-76
2023/06/02 06:21:02;;;;;;;9.30;4.40;;;;;;;23.01;42.44;99165.34;105568;1265;68697;-76
2023/06/02 06:23:30;;;;;;;13.80;5.30;;;;;;;23.09;42.06;99165.55;105483;1260;71409;-78
2023/06/02 06:25:58;;;;;;;7.90;4.40;;;;;;;23.17;41.90;99164.13;105507;1264;62494;-77
2023/06/02 06:28:26;;;;;;;9.60;4.60;;;;;;;23.26;41.64;99168.28;105535;1263;60441;-77
2023/06/02 06:30:55;;;;;;;10.60;4.20;;;;;;;23.31;41.37;99163.31;105388;1262;73865;-77
2023/06/02 06:33:23;;;;;;;12.90;4.70;;;;;;;23.38;41.54;99164.58;107687;1259;68722;-75
2023/06/02 06:35:53;;;;;;;9.00;4.80;;;;;;;23.45;41.68;99162.70;106391;1263;70989;-75
2023/06/02 06:38:21;;;;;;;11.20;4.60;;;;;;;23.54;41.24;99164.89;105525;1263;60451;-76
2023/06/02 06:40:50;;;;;;;7.50;4.60;;;;;;;23.57;41.17;99167.83;105414;1257;60536;-75
2023/06/02 06:43:17;;;;;;;6.50;4.20;;;;;;;23.61;40.29;99167.08;105420;1273;73789;-76
2023/06/02 06:45:52;;;;;;;8.40;4.20;;;;;;;23.66;40.26;99163.45;105520;1265;69002;-78
2023/06/02 06:48:20;;;;;;;11.60;4.30;;;;;;;23.72;40.36;99157.23;105557;1266;72484;-77
2023/06/02 06:50:48;;;;;;;9.20;4.30;;;;;;;23.79;40.44;99162.79;105688;1263;60610;-77
2023/06/02 06:53:17;;;;;;;7.20;3.80;;;;;;;23.82;40.68;99156.40;105867;1257;60599;-80
2023/06/02 06:55:45;;;;;;;8.10;3.50;;;;;;;23.87;40.55;99159.61;105450;1261;72694;-77
2023/06/02 06:58:12;;;;;;;9.10;4.60;;;;;;;23.93;40.52;99149.67;105426;1266;69058;-82
2023/06/02 07:00:40;;;;;;;6.20;3.30;;;;;;;24.02;40.67;99145.08;105487;1264;71463;-80
2023/06/02 07:03:07;;;;;;;6.10;3.90;;;;;;;24.12;40.36;99152.39;106234;1264;60476;-77
2023/06/02 07:05:35;;;;;;;11.10;5.10;;;;;;;24.17;40.49;99156.41;107735;1263;60367;-75
2023/06/02 07:08:03;;;;;;;7.90;3.70;;;;;;;24.21;40.13;99160.58;105404;1263;73921;-75
2023/06/02 07:10:30;;;;;;;9.10;3.70;;;;;;;24.25;39.86;99154.67;105521;1264;69512;-76
2023/06/02 07:12:58;;;;;;;8.70;4.00;;;;;;;24.28;39.92;99154.62;105391;1260;72664;-75
2023/06/02 07:15:25;;;;;;;6.80;3.50;;;;;;;24.33;39.71;99151.45;105491;1258;60566;-75
2023/06/02 07:17:53;;;;;;;6.00;3.10;;;;;;;24.39;39.58;99156.35;105597;1262;60497;-74
2023/06/02 07:20:21;;;;;;;8.10;4.30;;;;;;;24.43;39.86;99150.52;105381;1263;74842;-75
2023/06/02 07:22:48;;;;;;;9.40;4.00;;;;;;;24.46;39.97;99144.60;105462;1261;70489;-74
2023/06/02 07:25:16;;;;;;;6.90;4.10;;;;;;;24.51;40.73;99143.27;105523;1264;71417;-75
2023/06/02 07:27:43;;;;;;;12.60;4.20;;;;;;;24.59;40.13;99146.29;105482;1264;62073;-75
2023/06/02 07:30:11;;;;;;;7.20;4.40;;;;;;;24.65;39.77;99156.16;105502;1264;60350;-74
2023/06/02 07:32:39;;;;;;;13.20;4.80;;;;;;;24.68;38.97;99156.05;105619;1263;73807;-74
2023/06/02 07:35:07;;;;;;;7.90;4.00;;;;;;;24.65;39.08;99143.13;107424;1257;69051;-74
2023/06/02 07:37:34;;;;;;;6.30;4.00;;;;;;;24.66;39.43;99137.48;106425;1264;71416;-74
2023/06/02 07:40:02;;;;;;;8.10;3.70;;;;;;;24.75;39.34;99141.74;105372;1264;60550;-75
2023/06/02 07:42:31;;;;;;;6.60;3.50;;;;;;;24.82;37.80;99160.10;105473;1263;60572;-73
2023/06/02 07:44:58;;;;;;;8.20;3.20;;;;;;;24.80;37.51;99144.39;105484;1259;72666;-74
2023/06/02 07:47:25;;;;;;;12.90;3.50;;;;;;;24.78;37.75;99130.66;105432;1268;69232;-74
2023/06/02 07:49:53;;;;;;;9.50;3.90;;;;;;;24.82;37.69;99131.67;105555;1263;71739;-75
2023/06/02 07:52:20;;;;;;;6.20;3.70;;;;;;;24.89;37.78;99135.71;105438;1264;60589;-76
2023/06/02 07:54:48;;;;;;;6.40;3.80;;;;;;;24.98;38.02;99141.98;105521;1263;60559;-74
2023/06/02 07:57:15;;;;;;;7.00;3.60;;;;;;;25.03;37.17;99136.53;105293;1266;73867;-74
2023/06/02 07:59:43;;;;;;;6.20;4.10;;;;;;;25.04;37.83;99129.90;105388;1257;70657;-74
2023/06/02 08:02:10;;;;;;;9.30;4.50;;;;;;;25.09;37.67;99131.08;105542;1260;72736;-75
2023/06/02 08:04:38;;;;;;;8.40;3.80;;;;;;;25.18;36.81;99132.94;105892;1259;60933;-74
2023/06/02 08:07:06;;;;;;;5.90;3.80;;;;;;;25.25;37.04;99129.67;107766;1264;59192;-74
2023/06/02 08:09:33;;;;;;;7.40;4.60;;;;;;;25.34;36.42;99129.63;105430;1264;73846;-75
2023/06/02 08:12:01;;;;;;;7.90;3.60;;;;;;;25.44;36.67;99126.03;105281;1266;68890;-75
2023/06/02 08:14:29;;;;;;;5.60;3.70;;;;;;;25.55;36.30;99125.91;105331;1261;71631;-73
2023/06/02 08:16:57;;;;;;;10.60;3.40;;;;;;;25.64;35.79;99129.98;105443;1260;60457;-74
2023/06/02 08:19:25;;;;;;;6.20;3.80;;;;;;;25.68;35.08;99141.00;105464;1258;60495;-74
2023/06/02 08:21:54;;;;;;;9.80;3.90;;;;;;;25.69;34.94;99142.18;105349;1260;73891;-74
2023/06/02 08:24:25;;;;;;;8.00;3.60;;;;;;;25.67;35.14;99140.14;105486;1259;69978;-74
2023/06/02 08:26:54;;;;;;;9.30;3.90;;;;;;;25.63;34.51;99150.13;105569;1263;71457;-74
2023/06/02 08:29:23;;;;;;;10.00;3.20;;;;;;;25.63;33.75;99143.59;105528;1265;60338;-76
2023/06/02 08:31:51;;;;;;;4.90;3.60;;;;;;;25.65;33.99;99133.18;105681;1262;60446;-77
2023/06/02 08:34:20;;;;;;;5.20;2.70;;;;;;;25.73;33.78;99136.73;105422;1267;74085;-75
2023/06/02 08:36:56;;;;;;;7.40;3.20;;;;;;;25.78;33.51;99135.06;106477;1262;68899;-74
2023/06/02 08:39:25;;;;;;;4.70;3.50;;;;;;;25.83;34.01;99131.59;107019;1261;71412;-76
2023/06/02 08:41:55;;;;;;;7.70;3.50;;;;;;;25.90;34.15;99137.48;106880;1260;60956;-75
2023/06/02 08:44:23;;;;;;;4.00;3.50;;;;;;;26.02;33.46;99130.98;107103;1257;60443;-74
2023/06/02 08:46:51;;;;;;;9.20;3.50;;;;;;;26.13;33.96;99133.55;106205;1260;73951;-74
2023/06/02 08:49:18;;;;;;;5.20;3.20;;;;;;;26.24;33.82;99131.70;105567;1261;72837;-75
2023/06/02 08:51:47;;;;;;;5.70;3.70;;;;;;;26.31;33.57;99125.82;105465;1264;74420;-74
2023/06/02 08:54:15;;;;;;;7.30;3.40;;;;;;;26.39;33.97;99116.65;105527;1260;60505;-78
2023/06/02 08:56:44;;;;;;;6.70;3.30;;;;;;;26.56;33.99;99121.05;105493;1259;60634;-79
2023/06/02 08:59:11;;;;;;;6.80;3.30;;;;;;;26.76;33.40;99123.58;105364;1264;73887;-78
2023/06/02 09:01:42;;;;;;;6.00;3.00;;;;;;;26.89;32.75;99127.08;105517;1264;69313;-78
2023/06/02 09:04:11;;;;;;;5.40;3.80;;;;;;;26.99;32.34;99126.68;105682;1263;75159;-84
2023/06/02 09:06:39;;;;;;;6.20;3.80;;;;;;;27.06;31.25;99120.00;105475;1264;60451;-78
2023/06/02 09:09:06;;;;;;;4.80;3.20;;;;;;;27.19;31.76;99113.73;108371;1257;59865;-77
2023/06/02 09:11:33;;;;;;;6.90;3.50;;;;;;;27.42;31.76;99108.36;106165;1257;72583;-76
2023/06/02 09:14:03;;;;;;;8.60;3.80;;;;;;;27.72;31.80;99109.55;105531;1264;69322;-79
2023/06/02 09:16:39;;;;;;;6.80;3.30;;;;;;;28.03;30.94;99108.73;105490;1266;75102;-80
2023/06/02 09:19:06;;;;;;;6.50;3.50;;;;;;;28.28;30.78;99104.42;105508;1263;62851;-79
2023/06/02 09:21:35;;;;;;;3.90;3.50;;;;;;;28.64;30.03;99113.55;105488;1257;61733;-80
2023/06/02 09:24:03;;;;;;;4.60;3.10;;;;;;;29.02;29.32;99110.19;105947;1257;72395;-81
2023/06/02 09:26:34;;;;;;;4.80;3.30;;;;;;;29.33;29.35;99102.37;106018;1265;68759;-79
2023/06/02 09:29:09;;;;;;;5.60;3.70;;;;;;;29.73;29.55;99099.47;105693;1259;72510;-81
2023/06/02 09:31:48;;;;;;;5.90;3.40;;;;;;;30.21;29.24;99092.20;105877;1259;60560;-77
2023/06/02 09:34:16;;;;;;;4.60;3.30;;;;;;;30.63;28.87;99099.54;106541;1259;60364;-79
2023/06/02 09:36:47;;;;;;;8.20;3.70;;;;;;;30.91;28.69;99096.81;107980;1257;72850;-79
2023/06/02 09:39:14;;;;;;;5.90;3.50;;;;;;;31.19;28.26;99095.95;107751;1260;68895;-77
2023/06/02 09:41:42;;;;;;;4.50;3.40;;;;;;;31.46;28.11;99086.30;107645;1260;71579;-78
2023/06/02 09:44:15;;;;;;;5.60;3.70;;;;;;;31.65;27.81;99096.14;106683;1263;60559;-80
2023/06/02 09:46:43;;;;;;;5.90;3.10;;;;;;;31.78;27.70;99076.98;106937;1263;60533;-81
2023/06/02 09:49:14;;;;;;;6.70;3.40;;;;;;;31.96;27.50;99094.20;107079;1260;75885;-79
2023/06/02 09:51:41;;;;;;;5.00;3.80;;;;;;;31.99;27.25;99079.64;106632;1260;68916;-80
2023/06/02 09:54:09;;;;;;;4.10;3.70;;;;;;;31.98;27.51;99077.20;105889;1260;72073;-80
2023/06/02 09:56:37;;;;;;;6.90;3.20;;;;;;;32.02;27.66;99074.85;105674;1257;60899;-80
2023/06/02 09:59:05;;;;;;;5.20;3.50;;;;;;;32.16;27.97;99063.92;107975;1260;58888;-79
2023/06/02 10:01:33;;;;;;;6.20;4.00;;;;;;;32.50;27.85;99062.19;107911;1261;73166;-77
2023/06/02 10:04:03;;;;;;;9.80;3.40;;;;;;;32.84;27.30;99062.95;105704;1263;69196;-80
2023/06/02 10:07:06;;;;;;;7.80;4.10;;;;;;;33.00;27.49;99074.88;105563;1267;75207;-79
2023/06/02 10:09:46;;;;;;;7.20;3.70;;;;;;;33.12;27.45;99063.15;106250;1260;60917;-78
2023/06/02 10:12:38;;;;;;;4.40;3.50;;;;;;;33.24;27.34;99054.25;107949;1257;60191;-79
2023/06/02 10:15:21;;;;;;;43.50;6.50;;;;;;;33.51;27.34;99058.45;105534;1274;74147;-80
2023/06/02 10:18:25;;;;;;;5.80;3.50;;;;;;;33.61;26.58;99062.67;105701;1257;69987;-78
2023/06/02 10:21:13;;;;;;;6.30;3.60;;;;;;;33.58;27.09;99054.80;105720;1260;74843;-79
2023/06/02 10:24:25;;;;;;;3.80;3.40;;;;;;;33.76;26.77;99060.70;105577;1260;60457;-79
2023/06/02 10:26:53;;;;;;;;;;;;;;;33.94;26.66;99048.27;105354;1260;60623;-82
2023/06/02 10:29:21;;;;;;;5.10;3.60;;;;;;;34.02;26.45;99055.11;105394;1261;72630;-79
2023/06/02 10:31:48;;;;;;;4.50;3.40;;;;;;;33.94;26.41;99054.65;105387;1265;69506;-81
2023/06/02 10:34:35;;;;;;;6.00;4.00;;;;;;;33.58;26.63;99058.79;105458;1263;72571;-79
2023/06/02 10:37:02;;;;;;;6.10;3.90;;;;;;;33.16;27.09;99046.50;105418;1263;61101;-80
2023/06/02 10:39:39;;;;;;;5.50;4.10;;;;;;;32.97;27.36;99040.55;105502;1263;60482;-79
2023/06/02 10:42:12;;;;;;;5.80;3.80;;;;;;;33.06;27.48;99036.66;108052;1257;74762;-77
2023/06/02 10:44:39;;;;;;;4.20;3.60;;;;;;;33.34;27.48;99033.40;106533;1260;69041;-79
2023/06/02 10:47:19;;;;;;;4.60;3.80;;;;;;;33.61;26.85;99036.73;106651;1264;71970;-76
2023/06/02 10:49:58;;;;;;;6.20;3.30;;;;;;;33.56;26.88;99032.69;105857;1260;60540;-80
2023/06/02 10:52:26;;;;;;;4.50;3.60;;;;;;;33.44;26.72;99036.75;105525;1258;60539;-75
2023/06/02 10:55:24;;;;;;;6.10;3.80;;;;;;;33.37;26.82;99033.84;105527;1257;73817;-76
2023/06/02 10:57:51;;;;;;;7.70;3.30;;;;;;;33.38;26.69;99033.23;105500;1263;70298;-78
2023/06/02 11:00:43;;;;;;;6.20;3.40;;;;;;;33.38;26.63;99033.14;105741;1260;73002;-78
2023/06/02 11:03:17;;;;;;;5.50;3.70;;;;;;;33.41;26.42;99019.58;105559;1260;60642;-78
2023/06/02 11:05:45;;;;;;;5.10;3.50;;;;;;;33.26;26.53;99007.41;105359;1257;60423;-80
2023/06/02 11:08:18;;;;;;;6.50;3.40;;;;;;;33.21;26.54;99006.91;105454;1263;73895;-81
2023/06/02 11:10:56;;;;;;;5.60;3.90;;;;;;;33.34;27.01;99001.80;105956;1262;69655;-76
2023/06/02 11:13:27;;;;;;;4.80;3.10;;;;;;;33.67;26.67;99014.07;107186;1263;71447;-79
2023/06/02 11:16:00;;;;;;;5.90;3.90;;;;;;;33.89;26.33;99003.98;105561;1259;60609;-76
2023/06/02 11:18:28;;;;;;;5.50;3.10;;;;;;;34.20;26.22;98995.39;105548;1263;60334;-78
2023/06/02 11:20:58;;;;;;;6.20;3.20;;;;;;;34.60;25.77;98986.91;106380;1258;72000;-77
2023/06/02 11:23:26;;;;;;;4.50;3.40;;;;;;;34.88;25.26;98987.77;107017;1263;68730;-79
2023/06/02 11:26:10;;;;;;;7.10;3.30;;;;;;;35.00;25.50;98996.44;105934;1264;71421;-79
2023/06/02 11:28:38;;;;;;;9.10;4.00;;;;;;;34.98;25.39;99000.91;105678;1257;60563;-79
2023/06/02 11:31:18;;;;;;;6.70;3.50;;;;;;;34.60;25.20;98998.48;105721;1260;60557;-78
2023/06/02 11:33:50;;;;;;;4.00;3.40;;;;;;;34.10;25.49;98987.72;105566;1259;72707;-78
2023/06/02 11:36:28;;;;;;;11.30;3.80;;;;;;;33.77;25.63;98996.92;105461;1264;69989;-79